createdAt,value
2022-12-05T00:01:21.272Z,0.62
2022-12-05T00:03:49.433Z,0.64
2022-12-05T00:06:16.651Z,0.69
2022-12-05T00:08:43.562Z,0.76
2022-12-05T00:11:31.092Z,0.89
2022-12-05T00:13:59.377Z,0.82
2022-12-05T00:16:28.177Z,0.83
2022-12-05T00:18:54.638Z,0.64
2022-12-05T00:21:23.699Z,0.55
2022-12-05T00:23:51.407Z,0.51
2022-12-05T00:26:18.851Z,0.64
2022-12-05T00:28:45.483Z,0.68
2022-12-05T00:31:17.900Z,0.81
2022-12-05T00:33:45.223Z,0.84
2022-12-05T00:36:16.869Z,0.85
2022-12-05T00:38:43.911Z,0.92
2022-12-05T00:41:13.492Z,0.85
2022-12-05T00:43:40.351Z,0.74
2022-12-05T00:46:09.901Z,0.83
2022-12-05T00:48:37.181Z,0.95
2022-12-05T00:51:10.254Z,0.90
2022-12-05T00:53:37.000Z,0.92
2022-12-05T00:56:09.159Z,0.73
2022-12-05T00:58:36.382Z,0.65
2022-12-05T01:01:15.383Z,0.62
2022-12-05T01:03:43.543Z,0.64
2022-12-05T01:06:10.627Z,0.68
2022-12-05T01:08:37.370Z,0.73
2022-12-05T01:11:05.940Z,0.84
2022-12-05T01:13:32.849Z,0.78
2022-12-05T01:15:59.399Z,0.85
2022-12-05T01:18:26.584Z,0.77
2022-12-05T01:20:53.579Z,0.82
2022-12-05T01:23:21.983Z,0.86
2022-12-05T01:25:50.559Z,0.85
2022-12-05T01:28:18.378Z,0.83
2022-12-05T01:30:48.231Z,0.87
2022-12-05T01:33:15.014Z,0.77
2022-12-05T01:35:42.473Z,0.80
2022-12-05T01:38:11.407Z,0.78
2022-12-05T01:40:38.106Z,0.80
2022-12-05T01:43:10.812Z,0.82
2022-12-05T01:45:42.541Z,0.84
2022-12-05T01:48:18.883Z,0.95
2022-12-05T01:50:47.252Z,0.88
2022-12-05T01:53:14.865Z,0.97
2022-12-05T01:55:41.536Z,0.85
2022-12-05T01:58:09.960Z,0.81
2022-12-05T02:00:41.006Z,0.72
2022-12-05T02:03:11.688Z,0.54
2022-12-05T02:05:38.462Z,0.43
2022-12-05T02:08:08.047Z,0.51
2022-12-05T02:10:48.618Z,0.54
2022-12-05T02:13:38.789Z,0.51
2022-12-05T02:16:32.072Z,0.56
2022-12-05T02:19:14.371Z,0.64
2022-12-05T02:22:08.546Z,0.54
2022-12-05T02:24:45.580Z,0.57
2022-12-05T02:27:19.020Z,0.57
2022-12-05T02:30:07.802Z,0.58
2022-12-05T02:32:42.971Z,0.56
2022-12-05T02:35:37.400Z,0.62
2022-12-05T02:38:21.167Z,0.56
2022-12-05T02:40:47.514Z,0.60
2022-12-05T02:43:37.096Z,0.72
2022-12-05T02:46:14.243Z,0.77
2022-12-05T02:48:43.130Z,0.83
2022-12-05T02:51:13.072Z,0.97
2022-12-05T02:53:41.935Z,1.00
2022-12-05T02:56:08.692Z,0.89
2022-12-05T02:58:44.110Z,1.00
2022-12-05T03:01:11.376Z,0.87
2022-12-05T03:03:37.889Z,0.77
2022-12-05T03:06:11.719Z,0.78
2022-12-05T03:08:47.429Z,0.74
2022-12-05T03:11:15.506Z,0.73
2022-12-05T03:13:48.665Z,0.72
2022-12-05T03:16:23.455Z,0.78
2022-12-05T03:19:03.462Z,0.97
2022-12-05T03:21:29.856Z,1.00
2022-12-05T03:24:13.554Z,1.11
2022-12-05T03:26:53.417Z,1.14
2022-12-05T03:29:36.352Z,1.15
2022-12-05T03:32:08.743Z,1.05
2022-12-05T03:35:18.004Z,1.02
2022-12-05T03:37:52.337Z,1.11
2022-12-05T03:40:29.119Z,1.04
2022-12-05T03:43:09.116Z,1.03
2022-12-05T03:46:04.566Z,1.17
2022-12-05T03:48:40.350Z,1.15
2022-12-05T03:51:11.183Z,1.34
2022-12-05T03:54:10.764Z,1.32
2022-12-05T03:56:43.832Z,1.22
2022-12-05T03:59:23.452Z,1.17
2022-12-05T04:01:53.048Z,1.20
2022-12-05T04:04:28.776Z,1.23
2022-12-05T04:06:57.790Z,1.29
2022-12-05T04:09:31.312Z,1.29
2022-12-05T04:12:02.895Z,1.25
2022-12-05T04:14:42.081Z,1.30
2022-12-05T04:17:23.536Z,1.32
2022-12-05T04:20:13.792Z,1.34
2022-12-05T04:22:41.264Z,1.35
2022-12-05T04:25:29.551Z,1.40
2022-12-05T04:28:07.946Z,1.29
2022-12-05T04:30:47.016Z,1.24
2022-12-05T04:33:44.653Z,1.31
2022-12-05T04:36:20.247Z,1.30
2022-12-05T04:38:58.687Z,1.35
2022-12-05T04:41:39.477Z,1.34
2022-12-05T04:44:10.343Z,1.39
2022-12-05T04:46:39.860Z,1.42
2022-12-05T04:49:09.962Z,1.44
2022-12-05T04:51:38.602Z,1.53
2022-12-05T04:54:15.127Z,1.49
2022-12-05T04:56:43.929Z,1.49
2022-12-05T04:59:10.869Z,1.55
2022-12-05T05:01:42.857Z,1.58
2022-12-05T05:04:16.935Z,1.57
2022-12-05T05:06:43.874Z,1.51
2022-12-05T05:09:11.229Z,1.42
2022-12-05T05:11:38.096Z,1.40
2022-12-05T05:14:05.127Z,1.38
2022-12-05T05:16:38.753Z,1.45
2022-12-05T05:19:06.456Z,1.44
2022-12-05T05:21:38.862Z,1.39
2022-12-05T05:24:06.372Z,1.42
2022-12-05T05:26:40.909Z,1.46
2022-12-05T05:29:07.875Z,1.53
2022-12-05T05:31:35.488Z,1.56
2022-12-05T05:34:09.133Z,1.56
2022-12-05T05:36:36.786Z,1.60
2022-12-05T05:39:05.525Z,1.57
2022-12-05T05:41:35.309Z,1.56
2022-12-05T05:44:02.883Z,1.53
2022-12-05T05:46:32.492Z,1.59
2022-12-05T05:48:59.363Z,1.59
2022-12-05T05:51:27.963Z,1.53
2022-12-05T05:53:55.132Z,1.56
2022-12-05T05:56:22.422Z,1.59
2022-12-05T05:58:55.407Z,1.55
2022-12-05T06:01:22.020Z,1.50
2022-12-05T06:03:50.569Z,1.53
2022-12-05T06:06:18.867Z,1.43
2022-12-05T06:08:46.327Z,1.43
2022-12-05T06:11:18.877Z,1.50
2022-12-05T06:13:49.660Z,1.52
2022-12-05T06:16:18.168Z,1.58
2022-12-05T06:18:44.901Z,1.58
2022-12-05T06:21:15.964Z,1.58
2022-12-05T06:23:42.950Z,1.55
2022-12-05T06:26:15.631Z,1.58
2022-12-05T06:28:44.380Z,1.68
2022-12-05T06:31:13.354Z,1.71
2022-12-05T06:33:39.879Z,1.68
2022-12-05T06:36:14.740Z,1.66
2022-12-05T06:38:42.539Z,1.62
2022-12-05T06:41:16.264Z,1.28
2022-12-05T06:43:43.288Z,1.20
2022-12-05T06:46:12.579Z,1.05
2022-12-05T06:48:39.451Z,1.03
2022-12-05T06:51:08.798Z,1.08
2022-12-05T06:53:35.271Z,1.21
2022-12-05T06:56:05.056Z,1.28
2022-12-05T06:58:31.768Z,1.41
2022-12-05T07:01:16.958Z,1.50
2022-12-05T07:03:48.760Z,1.58
2022-12-05T07:06:15.713Z,1.66
2022-12-05T07:08:42.445Z,1.55
2022-12-05T07:11:09.160Z,1.63
2022-12-05T07:13:35.573Z,1.79
2022-12-05T07:16:02.322Z,1.70
2022-12-05T07:18:28.995Z,1.63
2022-12-05T07:21:13.620Z,1.60
2022-12-05T07:23:42.322Z,1.61
2022-12-05T07:26:10.951Z,1.61
2022-12-05T07:28:37.440Z,1.50
2022-12-05T07:31:05.994Z,1.48
2022-12-05T07:33:32.983Z,1.40
2022-12-05T07:36:08.379Z,1.40
2022-12-05T07:38:35.091Z,1.36
2022-12-05T07:41:13.238Z,1.43
2022-12-05T07:43:41.468Z,1.47
2022-12-05T07:46:11.603Z,1.50
2022-12-05T07:48:39.366Z,1.59
2022-12-05T07:51:07.936Z,1.64
2022-12-05T07:53:34.577Z,1.67
2022-12-05T07:56:02.692Z,1.76
2022-12-05T07:58:29.668Z,1.84
2022-12-05T08:00:56.614Z,1.88
2022-12-05T08:03:23.157Z,1.98
2022-12-05T08:05:49.941Z,2.00
2022-12-05T08:08:16.449Z,2.08
2022-12-05T08:10:42.905Z,2.13
2022-12-05T08:13:09.362Z,2.03
2022-12-05T08:15:36.695Z,2.02
2022-12-05T08:18:03.284Z,2.02
2022-12-05T08:20:30.489Z,2.04
2022-12-05T08:22:57.224Z,2.04
2022-12-05T08:25:23.774Z,2.02
2022-12-05T08:27:50.277Z,2.02
2022-12-05T08:30:17.018Z,2.02
2022-12-05T08:32:43.507Z,2.03
2022-12-05T08:35:10.224Z,2.20
2022-12-05T08:37:36.726Z,2.30
2022-12-05T08:40:04.217Z,2.38
2022-12-05T08:42:30.830Z,2.38
2022-12-05T08:44:57.460Z,2.37
2022-12-05T08:47:24.069Z,2.45
2022-12-05T08:49:50.484Z,2.50
2022-12-05T08:52:16.949Z,2.50
2022-12-05T08:54:43.339Z,2.55
2022-12-05T08:57:09.787Z,2.57
2022-12-05T08:59:36.194Z,2.60
2022-12-05T09:02:02.629Z,2.69
2022-12-05T09:04:29.104Z,2.77
2022-12-05T09:06:55.545Z,2.80
2022-12-05T09:09:21.977Z,2.82
2022-12-05T09:11:50.826Z,2.83
2022-12-05T09:14:18.246Z,2.82
2022-12-05T09:16:46.682Z,2.80
2022-12-05T09:19:16.509Z,2.82
2022-12-05T09:21:43.425Z,2.80
2022-12-05T09:24:12.022Z,2.96
2022-12-05T09:26:39.866Z,2.93
2022-12-05T09:29:08.836Z,2.96
2022-12-05T09:31:39.010Z,3.03
2022-12-05T09:34:05.841Z,3.10
2022-12-05T09:36:32.331Z,3.07
2022-12-05T09:39:05.819Z,3.15
2022-12-05T09:41:50.832Z,3.29
2022-12-05T09:44:40.144Z,3.40
2022-12-05T09:47:31.556Z,3.47
2022-12-05T09:50:28.308Z,3.54
2022-12-05T09:53:13.310Z,3.62
2022-12-05T09:55:45.947Z,3.69
2022-12-05T09:58:26.317Z,3.50
2022-12-05T10:01:16.504Z,3.51
2022-12-05T10:03:48.395Z,3.57
2022-12-05T10:06:21.909Z,3.51
2022-12-05T10:09:06.429Z,3.63
2022-12-05T10:11:39.156Z,3.62
2022-12-05T10:14:15.458Z,3.75
2022-12-05T10:16:52.374Z,3.81
2022-12-05T10:19:25.515Z,3.57
2022-12-05T10:21:58.960Z,3.58
2022-12-05T10:24:46.062Z,3.52
2022-12-05T10:27:22.001Z,3.41
2022-12-05T10:29:59.882Z,3.52
2022-12-05T10:32:36.293Z,3.43
2022-12-05T10:35:38.847Z,3.54
2022-12-05T10:38:06.813Z,3.65
2022-12-05T10:40:39.916Z,3.67
2022-12-05T10:43:08.833Z,3.55
2022-12-05T10:45:43.735Z,3.47
2022-12-05T10:48:12.926Z,3.54
2022-12-05T10:50:40.299Z,3.33
2022-12-05T10:53:06.998Z,3.29
2022-12-05T10:55:40.332Z,3.39
2022-12-05T10:58:17.811Z,3.35
2022-12-05T11:00:48.063Z,3.36
2022-12-05T11:03:26.444Z,3.41
2022-12-05T11:05:55.160Z,3.50
2022-12-05T11:09:02.420Z,3.58
2022-12-05T11:11:21.476Z,3.75
2022-12-05T11:13:58.618Z,3.75
2022-12-05T11:16:38.021Z,3.85
2022-12-05T11:19:27.456Z,3.95
2022-12-05T11:21:54.854Z,4.13
2022-12-05T11:24:31.707Z,4.31
2022-12-05T11:27:18.569Z,4.33
2022-12-05T11:29:54.702Z,4.36
2022-12-05T11:32:33.630Z,4.35
2022-12-05T11:35:12.089Z,4.20
2022-12-05T11:37:58.414Z,4.02
2022-12-05T11:40:35.227Z,4.08
2022-12-05T11:43:10.229Z,4.16
2022-12-05T11:45:45.867Z,4.27
2022-12-05T11:48:26.792Z,4.21
2022-12-05T11:51:31.555Z,4.15
2022-12-05T11:54:48.783Z,4.21
2022-12-05T11:57:25.351Z,4.50
2022-12-05T12:00:21.687Z,4.55
2022-12-05T12:03:18.584Z,4.54
2022-12-05T12:06:00.308Z,4.56
2022-12-05T12:08:38.808Z,4.73
2022-12-05T12:11:36.621Z,4.94
2022-12-05T12:14:27.349Z,5.12
2022-12-05T12:17:11.761Z,5.23
2022-12-05T12:20:04.016Z,5.35
2022-12-05T12:22:48.218Z,5.49
2022-12-05T12:25:45.115Z,5.03
2022-12-05T12:28:32.736Z,5.32
2022-12-05T12:31:38.911Z,5.34
2022-12-05T12:34:34.015Z,5.20
2022-12-05T12:37:27.130Z,5.18
2022-12-05T12:40:14.222Z,5.30
2022-12-05T12:43:51.427Z,5.23
2022-12-05T12:46:34.045Z,5.37
2022-12-05T12:49:19.885Z,5.25
2022-12-05T12:51:53.224Z,5.02
2022-12-05T12:54:54.800Z,5.23
2022-12-05T12:57:32.142Z,5.29
2022-12-05T13:00:12.067Z,5.37
2022-12-05T13:02:51.403Z,5.50
2022-12-05T13:05:44.244Z,5.62
2022-12-05T13:08:21.060Z,5.51
2022-12-05T13:10:49.287Z,5.42
2022-12-05T13:13:23.051Z,5.51
2022-12-05T13:15:56.429Z,5.77
2022-12-05T13:18:24.787Z,5.43
2022-12-05T13:21:05.355Z,5.04
2022-12-05T13:23:36.183Z,4.89
2022-12-05T13:26:09.594Z,4.87
2022-12-05T13:28:42.181Z,4.75
2022-12-05T13:31:10.673Z,4.56
2022-12-05T13:33:46.538Z,4.55
2022-12-05T13:36:34.941Z,4.40
2022-12-05T13:39:23.863Z,4.36
2022-12-05T13:42:12.214Z,4.36
2022-12-05T13:44:40.756Z,4.37
2022-12-05T13:47:20.627Z,4.42
2022-12-05T13:50:15.923Z,4.29
2022-12-05T13:52:49.827Z,4.34
2022-12-05T13:55:36.174Z,4.27
2022-12-05T13:58:23.357Z,4.33
2022-12-05T14:00:53.923Z,4.34
2022-12-05T14:03:32.738Z,4.21
2022-12-05T14:05:59.272Z,4.12
2022-12-05T14:08:31.528Z,4.02
2022-12-05T14:10:57.889Z,4.01
2022-12-05T14:13:25.181Z,3.99
2022-12-05T14:16:12.316Z,3.99
2022-12-05T14:18:46.048Z,3.97
2022-12-05T14:21:22.119Z,3.98
2022-12-05T14:24:00.491Z,3.99
2022-12-05T14:26:48.848Z,3.98
2022-12-05T14:29:55.604Z,3.96
2022-12-05T14:32:28.319Z,3.89
2022-12-05T14:35:21.243Z,3.93
2022-12-05T14:37:52.736Z,3.89
2022-12-05T14:40:35.107Z,3.98
2022-12-05T14:43:23.026Z,3.89
2022-12-05T14:45:52.528Z,3.92
2022-12-05T14:48:30.201Z,3.92
2022-12-05T14:50:57.971Z,3.93
2022-12-05T14:53:33.434Z,3.94
2022-12-05T14:56:20.647Z,3.93
2022-12-05T14:58:56.997Z,3.89
2022-12-05T15:01:31.782Z,3.91
2022-12-05T15:04:28.386Z,3.90
2022-12-05T15:07:03.472Z,3.87
2022-12-05T15:09:57.648Z,3.80
2022-12-05T15:12:42.493Z,3.83
2022-12-05T15:15:22.543Z,3.72
2022-12-05T15:18:00.766Z,3.72
2022-12-05T15:20:54.322Z,3.77
2022-12-05T15:23:45.176Z,3.77
2022-12-05T15:26:52.413Z,3.79
2022-12-05T15:29:28.132Z,3.60
2022-12-05T15:32:03.564Z,3.58
2022-12-05T15:34:48.281Z,3.60
2022-12-05T15:37:29.512Z,3.59
2022-12-05T15:40:07.531Z,3.63
2022-12-05T15:42:42.176Z,3.60
2022-12-05T15:45:14.554Z,3.61
2022-12-05T15:47:41.887Z,3.58
2022-12-05T15:50:16.619Z,3.55
2022-12-05T15:53:00.969Z,3.58
2022-12-05T15:55:33.370Z,3.56
2022-12-05T15:58:13.083Z,3.54
2022-12-05T16:00:47.776Z,3.37
2022-12-05T16:03:20.161Z,3.19
2022-12-05T16:05:57.753Z,3.15
2022-12-05T16:08:24.911Z,3.12
2022-12-05T16:10:51.620Z,3.05
2022-12-05T16:13:25.168Z,2.84
2022-12-05T16:15:54.020Z,2.76
2022-12-05T16:18:30.163Z,2.80
2022-12-05T16:20:57.152Z,2.84
2022-12-05T16:23:30.067Z,2.93
2022-12-05T16:26:21.607Z,2.99
2022-12-05T16:29:01.556Z,3.02
2022-12-05T16:31:33.078Z,2.74
2022-12-05T16:34:08.120Z,2.70
2022-12-05T16:36:34.892Z,2.82
2022-12-05T16:39:06.817Z,2.85
2022-12-05T16:41:38.864Z,2.83
2022-12-05T16:44:25.872Z,2.82
2022-12-05T16:46:53.523Z,2.85
2022-12-05T16:49:20.096Z,2.85
2022-12-05T16:52:09.879Z,2.73
2022-12-05T16:54:36.354Z,2.75
2022-12-05T16:57:03.986Z,2.82
2022-12-05T16:59:36.500Z,2.86
2022-12-05T17:02:05.500Z,2.91
2022-12-05T17:04:32.026Z,2.92
2022-12-05T17:06:58.903Z,2.85
2022-12-05T17:09:25.337Z,2.88
2022-12-05T17:11:56.156Z,2.89
2022-12-05T17:14:22.659Z,2.91
2022-12-05T17:16:49.108Z,3.02
2022-12-05T17:19:15.652Z,3.03
2022-12-05T17:21:42.741Z,3.11
2022-12-05T17:24:16.261Z,3.20
2022-12-05T17:26:43.365Z,3.29
2022-12-05T17:29:10.094Z,3.23
2022-12-05T17:31:36.657Z,3.18
2022-12-05T17:34:03.459Z,3.16
2022-12-05T17:36:29.908Z,2.99
2022-12-05T17:38:56.352Z,2.93
2022-12-05T17:41:23.988Z,2.92
2022-12-05T17:43:51.321Z,2.98
2022-12-05T17:46:20.419Z,3.07
2022-12-05T17:48:48.350Z,3.04
2022-12-05T17:51:15.039Z,3.04
2022-12-05T17:53:42.916Z,3.05
2022-12-05T17:56:09.458Z,2.91
2022-12-05T17:58:36.007Z,2.68
2022-12-05T18:01:03.702Z,2.65
2022-12-05T18:03:30.484Z,2.60
2022-12-05T18:05:57.432Z,2.63
2022-12-05T18:08:24.322Z,2.65
2022-12-05T18:10:51.530Z,2.50
2022-12-05T18:13:18.675Z,2.37
2022-12-05T18:15:48.004Z,2.39
2022-12-05T18:18:17.519Z,2.42
2022-12-05T18:20:44.890Z,2.43
2022-12-05T18:23:11.459Z,2.47
2022-12-05T18:25:39.687Z,2.36
2022-12-05T18:28:06.203Z,2.21
2022-12-05T18:30:32.787Z,2.17
2022-12-05T18:32:59.211Z,2.16
2022-12-05T18:35:40.569Z,2.18
2022-12-05T18:38:10.801Z,2.06
2022-12-05T18:40:37.360Z,1.96
2022-12-05T18:43:03.819Z,1.90
2022-12-05T18:45:31.248Z,1.91
2022-12-05T18:48:09.960Z,1.87
2022-12-05T18:50:44.563Z,1.83
2022-12-05T18:53:10.995Z,1.81
2022-12-05T18:55:58.321Z,1.87
2022-12-05T18:58:24.316Z,1.94
2022-12-05T19:00:50.843Z,1.98
2022-12-05T19:03:17.286Z,1.91
2022-12-05T19:05:43.713Z,1.88
2022-12-05T19:08:10.258Z,1.90
2022-12-05T19:10:36.949Z,1.92
2022-12-05T19:13:03.432Z,1.99
2022-12-05T19:15:29.940Z,2.00
2022-12-05T19:17:56.375Z,2.02
2022-12-05T19:20:22.796Z,2.06
2022-12-05T19:22:49.404Z,2.12
2022-12-05T19:25:15.981Z,2.18
2022-12-05T19:27:42.504Z,2.20
2022-12-05T19:30:10.212Z,2.27
2022-12-05T19:32:40.342Z,2.34
2022-12-05T19:35:07.860Z,2.37
2022-12-05T19:37:35.461Z,2.33
2022-12-05T19:40:01.966Z,2.24
2022-12-05T19:42:29.463Z,2.27
2022-12-05T19:44:55.882Z,2.25
2022-12-05T19:47:22.543Z,2.20
2022-12-05T19:49:49.412Z,2.29
2022-12-05T19:52:17.905Z,2.19
2022-12-05T19:54:45.068Z,2.18
2022-12-05T19:57:11.972Z,2.17
2022-12-05T19:59:38.472Z,2.21
2022-12-05T20:02:04.993Z,2.31
2022-12-05T20:04:31.519Z,2.51
2022-12-05T20:06:57.914Z,2.59
2022-12-05T20:09:24.809Z,2.65
2022-12-05T20:11:55.217Z,2.63
2022-12-05T20:14:24.215Z,2.75
2022-12-05T20:16:51.853Z,2.76
2022-12-05T20:19:18.332Z,2.78
2022-12-05T20:21:44.945Z,2.80
2022-12-05T20:24:11.676Z,2.86
2022-12-05T20:26:40.544Z,2.82
2022-12-05T20:29:07.609Z,2.79
2022-12-05T20:31:36.628Z,2.82
2022-12-05T20:34:04.376Z,2.81
2022-12-05T20:36:32.683Z,2.71
2022-12-05T20:39:01.839Z,2.66
2022-12-05T20:41:28.675Z,2.65
2022-12-05T20:43:58.043Z,2.63
2022-12-05T20:46:25.390Z,2.60
2022-12-05T20:48:53.209Z,2.59
2022-12-05T20:51:26.604Z,2.53
2022-12-05T20:53:53.222Z,2.50
2022-12-05T20:56:25.139Z,2.56
2022-12-05T20:58:53.854Z,2.49
2022-12-05T21:01:21.532Z,2.22
2022-12-05T21:03:49.880Z,1.99
2022-12-05T21:06:20.074Z,1.99
2022-12-05T21:08:46.507Z,1.89
2022-12-05T21:11:13.694Z,1.99
2022-12-05T21:13:40.332Z,1.88
2022-12-05T21:16:13.121Z,1.75
2022-12-05T21:18:40.485Z,1.61
2022-12-05T21:21:13.353Z,1.51
2022-12-05T21:23:40.471Z,1.30
2022-12-05T21:26:10.216Z,1.19
2022-12-05T21:28:37.083Z,1.03
2022-12-05T21:31:11.816Z,0.90
2022-12-05T21:33:39.907Z,0.80
2022-12-05T21:36:08.012Z,0.62
2022-12-05T21:38:35.254Z,0.50
2022-12-05T21:41:05.887Z,0.38
2022-12-05T21:43:34.063Z,0.33
2022-12-05T21:46:00.736Z,0.29
2022-12-05T21:48:28.307Z,0.35
2022-12-05T21:50:55.221Z,0.32
2022-12-05T21:53:21.816Z,0.13
2022-12-05T21:55:48.600Z,0.04
2022-12-05T21:58:15.096Z,0.03
2022-12-05T22:00:42.562Z,-0.06
2022-12-05T22:03:13.815Z,-0.07
2022-12-05T22:05:40.880Z,-0.11
2022-12-05T22:08:07.348Z,-0.08
2022-12-05T22:10:34.701Z,-0.07
2022-12-05T22:13:01.082Z,0.02
2022-12-05T22:15:27.587Z,0.07
2022-12-05T22:17:54.214Z,0.17
2022-12-05T22:20:20.698Z,0.29
2022-12-05T22:22:47.140Z,0.32
2022-12-05T22:25:13.678Z,0.36
2022-12-05T22:27:40.085Z,0.36
2022-12-05T22:30:08.523Z,0.36
2022-12-05T22:32:34.932Z,0.32
2022-12-05T22:35:03.980Z,0.37
2022-12-05T22:37:31.488Z,0.47
2022-12-05T22:39:58.291Z,0.69
2022-12-05T22:42:26.957Z,0.75
2022-12-05T22:44:53.366Z,0.70
2022-12-05T22:47:19.841Z,0.79
2022-12-05T22:49:46.235Z,0.68
2022-12-05T22:52:12.650Z,0.76
2022-12-05T22:54:39.258Z,0.77
2022-12-05T22:57:05.679Z,0.94
2022-12-05T22:59:32.184Z,1.22
2022-12-05T23:01:58.633Z,1.40
2022-12-05T23:04:25.142Z,1.43
2022-12-05T23:06:51.658Z,1.42
2022-12-05T23:09:18.164Z,1.24
2022-12-05T23:11:44.637Z,1.26
2022-12-05T23:14:11.195Z,1.27
2022-12-05T23:16:38.252Z,1.31
2022-12-05T23:19:05.796Z,1.45
2022-12-05T23:21:40.236Z,1.44
2022-12-05T23:24:11.783Z,1.40
2022-12-05T23:26:41.889Z,1.55
2022-12-05T23:29:11.909Z,1.58
2022-12-05T23:31:39.091Z,1.49
2022-12-05T23:34:05.601Z,1.41
2022-12-05T23:36:34.084Z,1.22
2022-12-05T23:39:01.018Z,1.19
2022-12-05T23:41:27.757Z,1.16
2022-12-05T23:43:54.725Z,1.12
2022-12-05T23:46:24.063Z,1.16
2022-12-05T23:48:51.352Z,1.12
2022-12-05T23:51:21.053Z,0.90
2022-12-05T23:53:51.744Z,0.91
2022-12-05T23:56:21.188Z,0.90
2022-12-05T23:58:47.617Z,0.88
